EGQK

RAF Kinloss Airport

Kinloss, United Kingdom
METAR EGQK 211450Z AUTO 01009KT 9999 FEW050/// 13/06 Q1014
Observed Flight Rules
Apr-21 @ 14:50 UTC (51 minutes ago) Visual Flight Rules
Wind Visibility Clouds
10° at 9 knots 10,000+ meters
  • Few at 5,000' AGL
Temperatures Readings
Current 13°C / 55°F
Dewpoint 6°C / 43°F
Humidity 63%
Altimeter 29.94" Hg
Pressure 1014 hPa
Elevation 7
METAR EGQK 211450Z AUTO 01009KT 9999 FEW050/// 13/06 Q1014
Observed Flight Rules
Apr-21 @ 14:50 UTC
(51 minutes ago)
VFR
Wind Visibility
10° at 9 knots 10,000+ meters
Clouds
  • Few at 5,000' AGL
Temperature Dewpoint
13°C / 55°F 6°C / 43°F
Humidity Altimeter Pressure
63% 29.94" Hg 1014 hPa